createdAt,value
2023-02-26T00:00:21.508Z,80.33
2023-02-26T00:01:24.967Z,80.57
2023-02-26T00:02:26.910Z,81.60
2023-02-26T00:03:28.734Z,81.46
2023-02-26T00:04:30.564Z,81.42
2023-02-26T00:05:32.399Z,81.61
2023-02-26T00:06:36.140Z,81.57
2023-02-26T00:07:38.857Z,81.85
2023-02-26T00:08:40.707Z,81.58
2023-02-26T00:09:42.546Z,81.58
2023-02-26T00:10:44.360Z,81.00
2023-02-26T00:11:46.586Z,81.75
2023-02-26T00:12:48.626Z,81.53
2023-02-26T00:13:50.485Z,82.20
2023-02-26T00:14:52.966Z,82.44
2023-02-26T00:15:58.966Z,82.83
2023-02-26T00:17:19.257Z,82.13
2023-02-26T00:18:21.261Z,82.37
2023-02-26T00:19:23.073Z,83.41
2023-02-26T00:20:25.567Z,82.94
2023-02-26T00:21:28.583Z,83.40
2023-02-26T00:22:30.522Z,83.35
2023-02-26T00:23:32.523Z,82.93
2023-02-26T00:24:34.312Z,83.12
2023-02-26T00:25:36.106Z,83.18
2023-02-26T00:26:37.869Z,82.63
2023-02-26T00:27:40.041Z,83.31
2023-02-26T00:28:41.976Z,82.53
2023-02-26T00:29:43.878Z,83.06
2023-02-26T00:30:45.875Z,83.13
2023-02-26T00:31:47.994Z,83.46
2023-02-26T00:32:50.061Z,83.33
2023-02-26T00:33:55.311Z,82.63
2023-02-26T00:34:57.269Z,83.10
2023-02-26T00:36:10.352Z,83.65
2023-02-26T00:37:27.478Z,83.60
2023-02-26T00:38:32.893Z,84.28
2023-02-26T00:39:37.542Z,83.62
2023-02-26T00:40:49.475Z,83.92
2023-02-26T00:41:51.416Z,83.85
2023-02-26T00:42:53.495Z,84.07
2023-02-26T00:43:55.431Z,83.86
2023-02-26T00:44:57.402Z,84.45
2023-02-26T00:46:22.027Z,83.40
2023-02-26T00:47:34.318Z,84.63
2023-02-26T00:48:42.143Z,83.82
2023-02-26T00:49:50.164Z,83.94
2023-02-26T00:50:57.283Z,84.71
2023-02-26T00:52:02.568Z,83.68
2023-02-26T00:53:04.480Z,84.39
2023-02-26T00:54:20.873Z,83.74
2023-02-26T00:55:22.585Z,84.60
2023-02-26T00:56:24.681Z,85.18
2023-02-26T00:57:26.667Z,85.13
2023-02-26T00:58:28.491Z,85.46
2023-02-26T00:59:30.400Z,85.50
2023-02-26T01:00:32.222Z,86.21
2023-02-26T01:01:34.150Z,85.39
2023-02-26T01:02:36.602Z,86.44
2023-02-26T01:03:39.173Z,86.20
2023-02-26T01:04:41.387Z,86.17
2023-02-26T01:05:43.410Z,86.24
2023-02-26T01:06:46.824Z,86.68
2023-02-26T01:08:00.678Z,86.09
2023-02-26T01:09:05.960Z,86.34
2023-02-26T01:10:08.176Z,86.67
2023-02-26T01:11:10.023Z,86.10
2023-02-26T01:12:13.555Z,86.33
2023-02-26T01:13:15.474Z,86.30
2023-02-26T01:14:17.650Z,87.00
2023-02-26T01:15:19.713Z,87.08
2023-02-26T01:16:25.142Z,86.65
2023-02-26T01:17:34.346Z,87.01
2023-02-26T01:18:43.726Z,86.88
2023-02-26T01:20:10.440Z,86.16
2023-02-26T01:21:15.664Z,85.95
2023-02-26T01:22:20.238Z,85.46
2023-02-26T01:23:25.897Z,86.38
2023-02-26T01:24:30.480Z,85.89
2023-02-26T01:25:50.662Z,85.69
2023-02-26T01:26:53.049Z,86.11
2023-02-26T01:27:57.141Z,86.33
2023-02-26T01:28:59.130Z,86.78
2023-02-26T01:30:01.080Z,86.37
2023-02-26T01:31:05.799Z,86.74
2023-02-26T01:32:25.550Z,86.53
2023-02-26T01:33:35.832Z,86.50
2023-02-26T01:34:42.590Z,86.39
2023-02-26T01:35:44.317Z,86.39
2023-02-26T01:37:09.043Z,86.90
2023-02-26T01:38:17.854Z,86.56
2023-02-26T01:39:29.591Z,86.42
2023-02-26T01:40:34.129Z,86.02
2023-02-26T01:41:39.003Z,86.30
2023-02-26T01:42:43.784Z,86.69
2023-02-26T01:43:48.585Z,85.96
2023-02-26T01:45:00.466Z,85.58
2023-02-26T01:46:10.790Z,85.41
2023-02-26T01:47:27.894Z,85.53
2023-02-26T01:48:48.267Z,84.00
2023-02-26T01:49:50.164Z,83.63
2023-02-26T01:50:51.978Z,83.48
2023-02-26T01:51:57.716Z,84.29
2023-02-26T01:53:18.689Z,84.44
2023-02-26T01:54:22.047Z,83.40
2023-02-26T01:55:25.079Z,83.98
2023-02-26T01:56:27.112Z,84.04
2023-02-26T01:57:29.219Z,83.89
2023-02-26T01:58:33.578Z,84.12
2023-02-26T01:59:37.345Z,83.19
2023-02-26T02:00:39.220Z,83.43
2023-02-26T02:01:41.871Z,83.71
2023-02-26T02:02:43.936Z,84.09
2023-02-26T02:03:46.495Z,84.46
2023-02-26T02:04:48.782Z,84.12
2023-02-26T02:05:52.341Z,83.95
2023-02-26T02:06:55.143Z,84.71
2023-02-26T02:07:57.753Z,84.61
2023-02-26T02:08:59.589Z,85.19
2023-02-26T02:10:01.368Z,84.75
2023-02-26T02:11:04.223Z,85.37
2023-02-26T02:12:18.236Z,85.31
2023-02-26T02:13:26.593Z,85.03
2023-02-26T02:14:28.587Z,85.35
2023-02-26T02:15:43.112Z,84.62
2023-02-26T02:16:49.333Z,84.71
2023-02-26T02:18:09.230Z,84.69
2023-02-26T02:19:11.181Z,85.18
2023-02-26T02:20:12.931Z,85.06
2023-02-26T02:21:17.506Z,85.38
2023-02-26T02:22:37.882Z,85.20
2023-02-26T02:23:39.626Z,85.55
2023-02-26T02:24:41.526Z,85.78
2023-02-26T02:26:01.826Z,85.17
2023-02-26T02:27:15.922Z,85.09
2023-02-26T02:28:36.460Z,85.02
2023-02-26T02:29:53.811Z,84.63
2023-02-26T02:30:58.532Z,85.25
2023-02-26T02:32:09.296Z,84.91
2023-02-26T02:33:15.655Z,85.30
2023-02-26T02:34:40.204Z,84.87
2023-02-26T02:35:45.223Z,84.61
2023-02-26T02:36:47.029Z,85.57
2023-02-26T02:37:51.913Z,85.41
2023-02-26T02:38:57.493Z,85.28
2023-02-26T02:40:04.794Z,84.89
2023-02-26T02:41:10.645Z,85.15
2023-02-26T02:42:18.348Z,84.89
2023-02-26T02:43:22.651Z,85.08
2023-02-26T02:44:26.459Z,84.69
2023-02-26T02:45:43.788Z,85.20
2023-02-26T02:46:47.588Z,84.61
2023-02-26T02:47:53.603Z,84.73
2023-02-26T02:49:13.646Z,85.48
2023-02-26T02:50:19.645Z,85.31
2023-02-26T02:51:27.354Z,85.44
2023-02-26T02:52:33.975Z,85.12
2023-02-26T02:53:47.764Z,84.90
2023-02-26T02:54:52.243Z,84.64
2023-02-26T02:55:59.786Z,84.87
2023-02-26T02:57:04.870Z,85.10
2023-02-26T02:58:08.682Z,84.91
2023-02-26T02:59:10.522Z,84.06
2023-02-26T03:00:13.622Z,84.24
2023-02-26T03:01:18.994Z,84.63
2023-02-26T03:02:31.438Z,84.30
2023-02-26T03:03:51.112Z,84.35
2023-02-26T03:04:52.897Z,84.23
2023-02-26T03:05:54.792Z,83.32
2023-02-26T03:06:56.832Z,83.28
2023-02-26T03:08:04.030Z,83.69
2023-02-26T03:09:07.409Z,83.46
2023-02-26T03:10:09.562Z,83.66
2023-02-26T03:11:11.448Z,82.85
2023-02-26T03:12:13.324Z,83.67
2023-02-26T03:13:17.515Z,82.77
2023-02-26T03:14:19.294Z,83.63
2023-02-26T03:15:26.662Z,82.87
2023-02-26T03:16:28.553Z,83.30
2023-02-26T03:17:30.348Z,82.20
2023-02-26T03:18:41.194Z,82.13
2023-02-26T03:19:42.990Z,82.46
2023-02-26T03:20:58.404Z,82.01
2023-02-26T03:22:03.550Z,81.62
2023-02-26T03:23:22.793Z,82.08
2023-02-26T03:24:24.594Z,81.34
2023-02-26T03:25:32.654Z,81.70
2023-02-26T03:26:45.119Z,82.12
2023-02-26T03:27:55.360Z,81.04
2023-02-26T03:29:06.182Z,81.85
2023-02-26T03:30:11.150Z,81.57
2023-02-26T03:31:20.731Z,81.20
2023-02-26T03:32:30.385Z,81.04
2023-02-26T03:33:32.198Z,81.44
2023-02-26T03:34:56.012Z,81.13
2023-02-26T03:36:03.518Z,82.11
2023-02-26T03:37:08.009Z,81.10
2023-02-26T03:38:12.291Z,81.75
2023-02-26T03:39:32.002Z,81.26
2023-02-26T03:40:40.276Z,80.96
2023-02-26T03:41:47.521Z,81.56
2023-02-26T03:42:53.035Z,81.66
2023-02-26T03:43:57.452Z,81.01
2023-02-26T03:45:06.010Z,81.25
2023-02-26T03:46:09.642Z,81.08
2023-02-26T03:47:14.040Z,81.71
2023-02-26T03:48:18.425Z,81.61
2023-02-26T03:49:32.082Z,81.59
2023-02-26T03:50:43.692Z,80.55
2023-02-26T03:51:46.580Z,80.64
2023-02-26T03:52:50.082Z,80.84
2023-02-26T03:53:58.930Z,80.58
2023-02-26T03:55:05.096Z,80.26
2023-02-26T03:56:11.817Z,80.18
2023-02-26T03:57:13.693Z,80.85
2023-02-26T03:58:15.536Z,80.33
2023-02-26T03:59:17.857Z,80.45
2023-02-26T04:00:20.136Z,80.46
2023-02-26T04:01:28.858Z,79.59
2023-02-26T04:02:35.128Z,80.20
2023-02-26T04:03:40.723Z,80.68
2023-02-26T04:04:45.971Z,80.12
2023-02-26T04:05:52.188Z,80.03
2023-02-26T04:06:54.548Z,79.96
2023-02-26T04:07:57.322Z,79.60
2023-02-26T04:08:59.596Z,80.06
2023-02-26T04:10:01.630Z,80.07
2023-02-26T04:11:08.527Z,79.75
2023-02-26T04:12:11.119Z,79.90
2023-02-26T04:13:12.830Z,79.91
2023-02-26T04:14:14.625Z,79.38
2023-02-26T04:15:16.457Z,79.48
2023-02-26T04:16:19.065Z,79.77
2023-02-26T04:17:20.938Z,78.77
2023-02-26T04:18:22.793Z,78.34
2023-02-26T04:19:24.591Z,78.45
2023-02-26T04:20:26.392Z,79.37
2023-02-26T04:21:28.210Z,78.60
2023-02-26T04:22:30.213Z,79.61
2023-02-26T04:23:32.333Z,78.81
2023-02-26T04:24:34.127Z,79.38
2023-02-26T04:25:35.926Z,79.15
2023-02-26T04:26:37.856Z,78.97
2023-02-26T04:27:39.629Z,78.36
2023-02-26T04:28:41.677Z,78.02
2023-02-26T04:29:43.485Z,78.38
2023-02-26T04:30:45.327Z,78.80
2023-02-26T04:31:47.419Z,78.13
2023-02-26T04:32:49.334Z,78.86
2023-02-26T04:33:51.071Z,78.03
2023-02-26T04:34:52.941Z,78.53
2023-02-26T04:35:54.800Z,77.90
2023-02-26T04:36:56.588Z,78.33
2023-02-26T04:37:58.405Z,78.57
2023-02-26T04:39:00.108Z,79.20
2023-02-26T04:40:01.974Z,78.96
2023-02-26T04:41:04.099Z,78.27
2023-02-26T04:42:05.899Z,78.38
2023-02-26T04:43:07.772Z,78.63
2023-02-26T04:44:09.604Z,78.10
2023-02-26T04:45:11.371Z,78.74
2023-02-26T04:46:13.256Z,78.18
2023-02-26T04:47:15.172Z,78.07
2023-02-26T04:48:17.029Z,78.86
2023-02-26T04:49:18.905Z,78.74
2023-02-26T04:50:20.786Z,78.83
2023-02-26T04:51:22.655Z,78.56
2023-02-26T04:52:24.545Z,78.29
2023-02-26T04:53:26.382Z,78.43
2023-02-26T04:54:28.733Z,78.04
2023-02-26T04:55:30.575Z,78.73
2023-02-26T04:56:33.017Z,78.52
2023-02-26T04:57:34.833Z,77.67
2023-02-26T04:58:36.733Z,77.74
2023-02-26T04:59:39.172Z,77.60
2023-02-26T05:00:40.964Z,77.54
2023-02-26T05:01:42.913Z,77.70
2023-02-26T05:02:44.693Z,77.20
2023-02-26T05:03:46.538Z,77.90
2023-02-26T05:04:48.353Z,77.33
2023-02-26T05:05:50.161Z,77.35
2023-02-26T05:06:51.988Z,78.27
2023-02-26T05:07:56.994Z,78.06
2023-02-26T05:08:58.841Z,77.69
2023-02-26T05:10:00.602Z,77.72
2023-02-26T05:11:02.424Z,78.43
2023-02-26T05:12:04.278Z,77.62
2023-02-26T05:13:06.250Z,78.32
2023-02-26T05:14:08.078Z,78.26
2023-02-26T05:15:10.050Z,77.69
2023-02-26T05:16:11.942Z,77.63
2023-02-26T05:17:13.738Z,77.76
2023-02-26T05:18:15.519Z,77.47
2023-02-26T05:19:17.360Z,77.58
2023-02-26T05:20:19.212Z,77.62
2023-02-26T05:21:23.433Z,76.96
2023-02-26T05:22:26.518Z,77.36
2023-02-26T05:23:29.299Z,77.65
2023-02-26T05:24:31.074Z,77.69
2023-02-26T05:25:32.821Z,77.58
2023-02-26T05:26:34.755Z,76.97
2023-02-26T05:27:36.632Z,77.36
2023-02-26T05:28:38.398Z,77.79
2023-02-26T05:29:42.424Z,77.73
2023-02-26T05:30:44.206Z,78.10
2023-02-26T05:31:46.209Z,77.71
2023-02-26T05:32:48.043Z,77.68
2023-02-26T05:33:49.730Z,77.73
2023-02-26T05:34:51.512Z,76.90
2023-02-26T05:35:53.473Z,77.17
2023-02-26T05:36:55.222Z,77.69
2023-02-26T05:37:57.141Z,77.16
2023-02-26T05:38:59.003Z,77.38
2023-02-26T05:40:00.769Z,77.23
2023-02-26T05:41:03.008Z,77.27
2023-02-26T05:42:04.861Z,78.37
2023-02-26T05:43:06.687Z,77.88
2023-02-26T05:44:09.724Z,78.16
2023-02-26T05:45:11.739Z,78.20
2023-02-26T05:46:14.322Z,77.03
2023-02-26T05:47:16.127Z,77.73
2023-02-26T05:48:18.112Z,77.82
2023-02-26T05:49:19.953Z,77.50
2023-02-26T05:50:21.831Z,77.09
2023-02-26T05:51:23.641Z,77.46
2023-02-26T05:52:25.413Z,77.79
2023-02-26T05:53:27.382Z,77.78
2023-02-26T05:54:29.967Z,78.00
2023-02-26T05:55:31.722Z,78.22
2023-02-26T05:56:33.527Z,77.43
2023-02-26T05:57:35.329Z,77.82
2023-02-26T05:58:37.538Z,77.48
2023-02-26T05:59:39.356Z,77.94
2023-02-26T06:00:41.222Z,78.25
2023-02-26T06:01:42.968Z,77.63
2023-02-26T06:02:44.831Z,77.98
2023-02-26T06:03:46.717Z,77.92
2023-02-26T06:04:48.724Z,77.71
2023-02-26T06:05:50.543Z,77.17
2023-02-26T06:06:52.328Z,77.52
2023-02-26T06:07:54.146Z,76.73
2023-02-26T06:08:56.036Z,77.32
2023-02-26T06:09:57.852Z,76.80
2023-02-26T06:10:59.669Z,76.48
2023-02-26T06:12:01.646Z,76.90
2023-02-26T06:13:03.681Z,76.48
2023-02-26T06:14:05.550Z,76.32
2023-02-26T06:15:08.011Z,76.65
2023-02-26T06:16:09.838Z,76.75
2023-02-26T06:17:11.606Z,76.83
2023-02-26T06:18:13.397Z,77.07
2023-02-26T06:19:15.201Z,77.74
2023-02-26T06:20:17.156Z,77.38
2023-02-26T06:21:19.339Z,77.58
2023-02-26T06:22:21.115Z,77.84
2023-02-26T06:23:22.930Z,78.12
2023-02-26T06:24:24.820Z,78.29
2023-02-26T06:25:26.779Z,78.18
2023-02-26T06:26:28.947Z,77.97
2023-02-26T06:27:30.943Z,78.49
2023-02-26T06:28:33.224Z,78.17
2023-02-26T06:29:35.385Z,78.15
2023-02-26T06:30:37.321Z,77.88
2023-02-26T06:31:39.187Z,78.42
2023-02-26T06:32:41.449Z,78.41
2023-02-26T06:33:43.276Z,78.35
2023-02-26T06:34:45.077Z,78.63
2023-02-26T06:35:47.405Z,78.85
2023-02-26T06:36:49.237Z,78.42
2023-02-26T06:37:51.154Z,78.60
2023-02-26T06:38:53.078Z,78.54
2023-02-26T06:39:54.907Z,78.45
2023-02-26T06:40:56.909Z,78.80
2023-02-26T06:41:58.768Z,79.27
2023-02-26T06:43:00.686Z,79.41
2023-02-26T06:44:02.545Z,79.46
2023-02-26T06:45:04.630Z,79.47
2023-02-26T06:46:06.654Z,79.27
2023-02-26T06:47:08.494Z,79.24
2023-02-26T06:48:10.379Z,79.07
2023-02-26T06:49:12.182Z,79.21
2023-02-26T06:50:14.050Z,79.54
2023-02-26T06:51:15.879Z,78.98
2023-02-26T06:52:17.751Z,79.47
2023-02-26T06:53:19.501Z,78.83
2023-02-26T06:54:21.371Z,79.33
2023-02-26T06:55:27.159Z,78.88
2023-02-26T06:56:30.057Z,78.74
2023-02-26T06:57:32.043Z,79.28
2023-02-26T06:58:33.870Z,78.91
2023-02-26T06:59:35.780Z,79.67
2023-02-26T07:00:38.292Z,78.51
2023-02-26T07:01:40.177Z,79.07
2023-02-26T07:02:42.056Z,79.32
2023-02-26T07:03:43.832Z,79.43
2023-02-26T07:04:45.752Z,78.47
2023-02-26T07:05:47.726Z,79.05
2023-02-26T07:06:49.497Z,78.33
2023-02-26T07:07:51.286Z,78.27
2023-02-26T07:08:53.198Z,78.68
2023-02-26T07:09:55.030Z,78.52
2023-02-26T07:10:56.982Z,78.51
2023-02-26T07:11:58.745Z,77.33
2023-02-26T07:13:00.738Z,77.53
2023-02-26T07:14:02.488Z,77.06
2023-02-26T07:15:07.600Z,77.13
2023-02-26T07:16:09.608Z,77.92
2023-02-26T07:17:20.766Z,77.96
2023-02-26T07:18:22.914Z,77.58
2023-02-26T07:19:24.725Z,77.65
2023-02-26T07:20:26.975Z,77.20
2023-02-26T07:21:28.935Z,77.88
2023-02-26T07:22:30.690Z,77.30
2023-02-26T07:23:32.477Z,77.44
2023-02-26T07:24:34.272Z,77.89
2023-02-26T07:25:36.107Z,77.79
2023-02-26T07:26:37.969Z,77.56
2023-02-26T07:27:41.179Z,77.62
2023-02-26T07:28:43.876Z,77.64
2023-02-26T07:29:45.672Z,77.72
2023-02-26T07:30:47.742Z,77.66
2023-02-26T07:31:49.815Z,77.28
2023-02-26T07:32:51.699Z,76.95
2023-02-26T07:33:53.507Z,76.98
2023-02-26T07:34:55.876Z,77.10
2023-02-26T07:35:57.908Z,77.07
2023-02-26T07:36:59.941Z,77.57
2023-02-26T07:38:01.895Z,77.21
2023-02-26T07:39:03.774Z,77.85
2023-02-26T07:40:05.866Z,77.82
2023-02-26T07:41:07.655Z,77.31
2023-02-26T07:42:10.058Z,76.92
2023-02-26T07:43:11.926Z,76.76
2023-02-26T07:44:13.771Z,76.70
2023-02-26T07:45:18.760Z,77.61
2023-02-26T07:46:20.620Z,77.55
2023-02-26T07:47:22.569Z,77.58
2023-02-26T07:48:24.368Z,77.53
2023-02-26T07:49:26.238Z,77.85
2023-02-26T07:50:28.025Z,77.64
2023-02-26T07:51:31.607Z,76.75
2023-02-26T07:52:34.283Z,77.39
2023-02-26T07:53:36.066Z,77.50
2023-02-26T07:54:37.972Z,76.93
2023-02-26T07:55:39.821Z,76.83
2023-02-26T07:56:43.045Z,77.40
2023-02-26T07:57:44.912Z,76.29
2023-02-26T07:58:46.751Z,76.53
2023-02-26T07:59:48.584Z,76.57
2023-02-26T08:00:51.570Z,76.84
2023-02-26T08:01:53.360Z,76.75
2023-02-26T08:02:55.218Z,76.19
2023-02-26T08:03:57.148Z,76.18
2023-02-26T08:04:58.941Z,76.69
2023-02-26T08:06:00.792Z,76.13
2023-02-26T08:07:02.629Z,75.98
2023-02-26T08:08:05.079Z,76.29
2023-02-26T08:09:06.978Z,76.14
2023-02-26T08:10:09.257Z,75.35
2023-02-26T08:11:11.100Z,76.01
2023-02-26T08:12:13.013Z,74.81
2023-02-26T08:13:14.916Z,75.10
2023-02-26T08:14:16.670Z,75.98
2023-02-26T08:15:18.525Z,75.43
2023-02-26T08:16:20.416Z,75.74
2023-02-26T08:17:22.299Z,75.75
2023-02-26T08:18:24.457Z,75.08
2023-02-26T08:19:26.352Z,74.83
2023-02-26T08:20:28.192Z,75.29
2023-02-26T08:21:29.946Z,75.23
2023-02-26T08:22:31.831Z,75.11
2023-02-26T08:23:33.728Z,75.33
2023-02-26T08:24:35.606Z,74.72
2023-02-26T08:25:37.396Z,74.97
2023-02-26T08:26:39.361Z,75.69
2023-02-26T08:27:41.167Z,75.11
2023-02-26T08:28:43.040Z,74.77
2023-02-26T08:29:46.661Z,74.09
2023-02-26T08:30:48.530Z,74.67
2023-02-26T08:31:50.741Z,74.80
2023-02-26T08:32:52.652Z,74.95
2023-02-26T08:33:55.077Z,73.98
2023-02-26T08:34:56.970Z,73.67
2023-02-26T08:35:59.398Z,74.17
2023-02-26T08:37:01.289Z,74.05
2023-02-26T08:38:03.159Z,73.53
2023-02-26T08:39:05.037Z,73.62
2023-02-26T08:40:08.595Z,73.43
2023-02-26T08:41:10.595Z,73.15
2023-02-26T08:42:12.667Z,73.01
2023-02-26T08:43:14.414Z,72.87
2023-02-26T08:44:16.127Z,72.39
2023-02-26T08:45:18.045Z,72.47
2023-02-26T08:46:19.970Z,73.13
2023-02-26T08:47:28.389Z,72.93
2023-02-26T08:48:30.502Z,73.89
2023-02-26T08:49:32.390Z,73.91
2023-02-26T08:50:34.153Z,73.69
2023-02-26T08:51:36.040Z,72.96
2023-02-26T08:52:38.925Z,73.21
2023-02-26T08:53:40.746Z,71.99
2023-02-26T08:54:42.568Z,72.58
2023-02-26T08:55:47.610Z,72.60
2023-02-26T08:56:49.469Z,73.00
2023-02-26T08:57:51.352Z,72.37
2023-02-26T08:58:53.170Z,72.90
2023-02-26T08:59:55.004Z,72.99
2023-02-26T09:00:56.792Z,72.91
2023-02-26T09:01:58.752Z,72.07
2023-02-26T09:03:00.700Z,72.21
2023-02-26T09:04:02.573Z,72.66
2023-02-26T09:05:04.747Z,72.43
2023-02-26T09:06:06.659Z,71.82
2023-02-26T09:07:08.439Z,71.21
2023-02-26T09:08:11.815Z,72.30
2023-02-26T09:09:13.574Z,72.14
2023-02-26T09:10:15.507Z,72.84
2023-02-26T09:11:17.382Z,72.43
2023-02-26T09:12:19.324Z,72.23
2023-02-26T09:13:21.131Z,72.15
2023-02-26T09:14:23.687Z,71.26
2023-02-26T09:15:25.541Z,71.19
2023-02-26T09:16:27.723Z,71.63
2023-02-26T09:17:29.969Z,70.88
2023-02-26T09:18:31.776Z,70.80
2023-02-26T09:19:33.704Z,70.75
2023-02-26T09:20:35.549Z,69.87
2023-02-26T09:21:37.390Z,70.30
2023-02-26T09:22:39.217Z,69.82
2023-02-26T09:23:41.009Z,69.77
2023-02-26T09:24:42.853Z,70.94
2023-02-26T09:25:44.881Z,69.81
2023-02-26T09:26:46.695Z,71.23
2023-02-26T09:27:48.492Z,70.66
2023-02-26T09:28:50.581Z,69.85
2023-02-26T09:29:52.433Z,70.69
2023-02-26T09:30:55.035Z,70.89
2023-02-26T09:31:57.183Z,70.51
2023-02-26T09:32:59.083Z,70.23
2023-02-26T09:34:01.013Z,70.92
2023-02-26T09:35:04.051Z,70.76
2023-02-26T09:36:06.177Z,69.63
2023-02-26T09:37:08.762Z,70.50
2023-02-26T09:38:11.014Z,70.64
2023-02-26T09:39:13.321Z,70.52
2023-02-26T09:40:28.562Z,70.71
2023-02-26T09:41:34.388Z,70.22
2023-02-26T09:42:42.277Z,69.94
2023-02-26T09:44:08.236Z,69.43
2023-02-26T09:45:20.543Z,69.72
2023-02-26T09:46:39.640Z,70.40
2023-02-26T09:47:46.830Z,70.34
2023-02-26T09:48:50.766Z,70.27
2023-02-26T09:49:55.301Z,70.21
2023-02-26T09:50:58.549Z,69.95
2023-02-26T09:52:12.565Z,69.54
2023-02-26T09:53:23.219Z,69.72
2023-02-26T09:54:26.178Z,69.16
2023-02-26T09:55:48.310Z,69.98
2023-02-26T09:56:52.575Z,69.46
2023-02-26T09:58:05.302Z,70.36
2023-02-26T09:59:09.328Z,70.99
2023-02-26T10:00:37.910Z,71.04
2023-02-26T10:01:45.816Z,70.64
2023-02-26T10:02:53.771Z,69.96
2023-02-26T10:04:20.594Z,70.41
2023-02-26T10:05:22.721Z,70.84
2023-02-26T10:06:33.438Z,70.42
2023-02-26T10:07:43.775Z,70.49
2023-02-26T10:08:52.557Z,70.49
2023-02-26T10:10:09.414Z,70.02
2023-02-26T10:11:14.706Z,70.11
2023-02-26T10:12:18.369Z,69.78
2023-02-26T10:13:38.500Z,69.89
2023-02-26T10:15:03.804Z,69.56
2023-02-26T10:16:08.076Z,68.21
2023-02-26T10:17:19.208Z,68.40
2023-02-26T10:18:26.852Z,68.69
2023-02-26T10:19:33.295Z,68.48
2023-02-26T10:20:49.956Z,68.81
2023-02-26T10:22:01.458Z,69.38
2023-02-26T10:23:18.229Z,69.47
2023-02-26T10:24:23.443Z,70.38
2023-02-26T10:25:33.506Z,70.78
2023-02-26T10:26:45.950Z,72.10
2023-02-26T10:27:57.158Z,72.39
2023-02-26T10:29:15.524Z,72.26
2023-02-26T10:30:27.028Z,73.64
2023-02-26T10:31:44.901Z,74.11
2023-02-26T10:32:53.852Z,74.57
2023-02-26T10:34:04.675Z,75.40
2023-02-26T10:35:17.112Z,76.21
2023-02-26T10:36:41.072Z,76.74
2023-02-26T10:38:03.266Z,76.28
2023-02-26T10:39:15.179Z,77.40
2023-02-26T10:40:16.978Z,77.44
2023-02-26T10:41:21.076Z,78.26
2023-02-26T10:42:28.056Z,77.79
2023-02-26T10:43:38.745Z,78.11
2023-02-26T10:44:45.209Z,78.14
2023-02-26T10:46:07.526Z,78.83
2023-02-26T10:47:21.297Z,80.05
2023-02-26T10:48:23.221Z,80.06
2023-02-26T10:49:25.103Z,80.38
2023-02-26T10:50:27.946Z,80.71
2023-02-26T10:51:34.286Z,80.79
2023-02-26T10:52:36.766Z,80.16
2023-02-26T10:53:40.745Z,80.66
2023-02-26T10:54:49.663Z,81.14
2023-02-26T10:55:54.919Z,80.55
2023-02-26T10:56:57.336Z,80.57
2023-02-26T10:58:13.786Z,80.06
2023-02-26T10:59:16.793Z,80.12
2023-02-26T11:00:20.867Z,79.43
2023-02-26T11:01:25.106Z,79.08
2023-02-26T11:02:35.073Z,79.90
2023-02-26T11:03:41.065Z,78.99
2023-02-26T11:04:43.164Z,78.25
2023-02-26T11:05:45.355Z,78.59
2023-02-26T11:06:53.162Z,78.88
2023-02-26T11:07:57.207Z,78.35
2023-02-26T11:09:00.726Z,78.09
2023-02-26T11:10:03.113Z,78.99
2023-02-26T11:11:05.926Z,78.44
2023-02-26T11:12:13.991Z,79.25
2023-02-26T11:13:15.742Z,77.51
2023-02-26T11:14:17.662Z,77.01
2023-02-26T11:15:23.814Z,77.31
2023-02-26T11:16:26.224Z,76.86
2023-02-26T11:17:32.633Z,75.53
2023-02-26T11:18:41.848Z,77.06
2023-02-26T11:19:50.760Z,76.09
2023-02-26T11:20:55.220Z,77.01
2023-02-26T11:21:58.022Z,76.01
2023-02-26T11:23:01.383Z,75.83
2023-02-26T11:24:05.582Z,75.73
2023-02-26T11:25:08.693Z,75.69
2023-02-26T11:26:17.184Z,76.45
2023-02-26T11:27:21.026Z,76.35
2023-02-26T11:28:30.268Z,76.51
2023-02-26T11:29:40.498Z,76.82
2023-02-26T11:30:44.498Z,77.04
2023-02-26T11:31:53.843Z,76.98
2023-02-26T11:32:58.947Z,76.94
2023-02-26T11:34:03.674Z,77.93
2023-02-26T11:35:09.111Z,78.57
2023-02-26T11:36:20.440Z,78.75
2023-02-26T11:37:30.591Z,78.76
2023-02-26T11:38:33.911Z,78.56
2023-02-26T11:39:39.180Z,78.63
2023-02-26T11:40:42.648Z,78.71
2023-02-26T11:41:47.067Z,79.19
2023-02-26T11:42:51.811Z,78.61
2023-02-26T11:44:16.040Z,78.41
2023-02-26T11:45:19.920Z,78.30
2023-02-26T11:46:24.676Z,78.46
2023-02-26T11:47:31.708Z,78.54
2023-02-26T11:48:42.905Z,78.48
2023-02-26T11:49:46.109Z,77.79
2023-02-26T11:50:50.400Z,78.07
2023-02-26T11:52:10.624Z,77.53
2023-02-26T11:53:22.463Z,77.26
2023-02-26T11:54:27.858Z,76.86
2023-02-26T11:55:32.463Z,77.10
2023-02-26T11:56:40.692Z,76.58
2023-02-26T11:57:43.101Z,75.49
2023-02-26T11:58:46.498Z,75.01
2023-02-26T11:59:49.666Z,74.67
2023-02-26T12:00:53.348Z,73.12
2023-02-26T12:01:55.211Z,74.81
2023-02-26T12:03:01.773Z,74.82
2023-02-26T12:04:04.172Z,74.17
2023-02-26T12:05:07.558Z,74.88
2023-02-26T12:06:19.588Z,75.22
2023-02-26T12:07:22.244Z,72.03
2023-02-26T12:08:33.292Z,72.16
2023-02-26T12:09:35.350Z,73.08
2023-02-26T12:10:41.208Z,72.99
2023-02-26T12:12:01.738Z,72.72
2023-02-26T12:13:17.351Z,71.71
2023-02-26T12:14:25.591Z,69.14
2023-02-26T12:15:42.901Z,70.02
2023-02-26T12:16:58.351Z,70.38
2023-02-26T12:18:16.202Z,70.16
2023-02-26T12:19:24.818Z,69.38
2023-02-26T12:20:32.679Z,69.44
2023-02-26T12:21:46.969Z,68.68
2023-02-26T12:22:55.603Z,69.68
2023-02-26T12:24:21.293Z,67.23
2023-02-26T12:25:23.562Z,67.96
2023-02-26T12:26:45.666Z,68.15
2023-02-26T12:28:02.629Z,68.16
2023-02-26T12:29:24.113Z,68.93
2023-02-26T12:30:32.806Z,67.50
2023-02-26T12:31:47.460Z,68.38
2023-02-26T12:33:05.342Z,69.12
2023-02-26T12:34:32.593Z,68.28
2023-02-26T12:35:35.008Z,69.13
2023-02-26T12:36:57.233Z,68.33
2023-02-26T12:38:08.645Z,68.72
2023-02-26T12:39:33.188Z,68.07
2023-02-26T12:40:41.714Z,68.02
2023-02-26T12:41:52.786Z,68.84
2023-02-26T12:42:57.865Z,69.63
2023-02-26T12:44:02.777Z,69.52
2023-02-26T12:45:23.378Z,69.10
2023-02-26T12:46:52.174Z,68.60
2023-02-26T12:48:05.635Z,68.44
2023-02-26T12:49:31.677Z,67.39
2023-02-26T12:50:37.526Z,67.77
2023-02-26T12:51:58.735Z,68.71
2023-02-26T12:53:11.479Z,69.58
2023-02-26T12:54:33.790Z,69.57
2023-02-26T12:55:55.843Z,70.28
2023-02-26T12:57:00.736Z,71.42
2023-02-26T12:58:21.583Z,72.59
2023-02-26T12:59:24.535Z,73.65
2023-02-26T13:00:30.881Z,74.23
2023-02-26T13:01:34.360Z,75.41
2023-02-26T13:02:45.158Z,76.67
2023-02-26T13:03:58.766Z,77.70
2023-02-26T13:05:00.654Z,76.91
2023-02-26T13:06:02.956Z,78.23
2023-02-26T13:07:22.586Z,78.64
2023-02-26T13:08:48.174Z,77.84
2023-02-26T13:09:56.083Z,76.89
2023-02-26T13:11:26.260Z,76.73
2023-02-26T13:12:33.927Z,76.55
2023-02-26T13:13:38.906Z,77.27
2023-02-26T13:14:52.835Z,77.42
2023-02-26T13:16:03.794Z,76.81
2023-02-26T13:17:05.678Z,77.04
2023-02-26T13:18:07.975Z,78.00
2023-02-26T13:19:13.718Z,77.96
2023-02-26T13:20:15.749Z,77.00
2023-02-26T13:21:24.580Z,77.56
2023-02-26T13:22:27.683Z,77.56
2023-02-26T13:23:33.125Z,76.16
2023-02-26T13:24:39.102Z,75.63
2023-02-26T13:25:52.231Z,75.51
2023-02-26T13:26:55.223Z,75.77
2023-02-26T13:28:00.018Z,76.20
2023-02-26T13:29:02.353Z,76.44
2023-02-26T13:30:15.618Z,76.86
2023-02-26T13:31:20.975Z,77.01
2023-02-26T13:32:27.462Z,77.43
2023-02-26T13:33:31.479Z,77.21
2023-02-26T13:34:45.916Z,76.31
2023-02-26T13:35:49.376Z,75.07
2023-02-26T13:36:52.316Z,74.69
2023-02-26T13:37:56.234Z,74.28
2023-02-26T13:39:05.688Z,75.23
2023-02-26T13:40:26.461Z,75.08
2023-02-26T13:41:39.723Z,75.52
2023-02-26T13:42:49.410Z,74.63
2023-02-26T13:43:58.255Z,73.37
2023-02-26T13:45:15.561Z,74.05
2023-02-26T13:46:27.697Z,74.99
2023-02-26T13:47:30.310Z,76.02
2023-02-26T13:48:36.923Z,75.81
2023-02-26T13:49:50.091Z,76.46
2023-02-26T13:51:08.787Z,77.17
2023-02-26T13:52:23.932Z,77.44
2023-02-26T13:53:30.155Z,77.14
2023-02-26T13:54:43.649Z,77.30
2023-02-26T13:55:49.641Z,76.79
2023-02-26T13:57:09.383Z,77.04
2023-02-26T13:58:28.225Z,77.33
2023-02-26T13:59:34.122Z,77.20
2023-02-26T14:00:36.600Z,76.96
2023-02-26T14:01:50.600Z,77.50
2023-02-26T14:02:54.457Z,77.80
2023-02-26T14:04:22.893Z,77.54